Terminal Aerodrome Forecast
Issued by NWS Paducah, KY

Home | Current Version | Previous Version | Text Only | Print | Product List | Glossary On
Versions: 1 2 3 4 5 6 7 8 9 10 11 12 13 14 15 16 17 18 19 20 21 22
243
FTUS43 KPAH 272343 AAA
TAFPAH
TAF AMD
KPAH 272343Z 2800/2824 19008KT P6SM VCTS SCT035CB BKN120
      TEMPO 2800/2801 VRB12G25KT 3SM -TSRA BR BKN035CB
     FM280200 20004KT P6SM SCT045 BKN150
     FM281200 27010KT P6SM BKN040=

USA.gov is the U.S. government's official web portal to all federal, state and local government web resources and services.